createdAt,value
2023-03-31T00:00:57.976Z,6.60
2023-03-31T00:03:30.244Z,6.60
2023-03-31T00:06:02.220Z,6.60
2023-03-31T00:08:37.390Z,6.60
2023-03-31T00:11:09.219Z,6.60
2023-03-31T00:13:40.991Z,6.60
2023-03-31T00:16:13.142Z,6.60
2023-03-31T00:18:47.312Z,6.50
2023-03-31T00:21:28.885Z,6.50
2023-03-31T00:24:06.874Z,6.50
2023-03-31T00:26:39.006Z,6.50
2023-03-31T00:29:13.093Z,6.60
2023-03-31T00:31:44.853Z,6.70
2023-03-31T00:34:16.779Z,6.70
2023-03-31T00:36:48.529Z,6.80
2023-03-31T00:39:20.504Z,6.80
2023-03-31T00:41:52.241Z,6.80
2023-03-31T00:44:29.234Z,6.80
2023-03-31T00:47:09.790Z,6.70
2023-03-31T00:49:45.735Z,6.70
2023-03-31T00:52:28.011Z,6.60
2023-03-31T00:55:04.390Z,6.60
2023-03-31T00:57:40.115Z,6.60
2023-03-31T01:00:16.368Z,6.50
2023-03-31T01:02:56.140Z,6.50
2023-03-31T01:05:42.190Z,6.40
2023-03-31T01:08:16.243Z,6.50
2023-03-31T01:10:54.513Z,6.60
2023-03-31T01:13:27.566Z,6.70
2023-03-31T01:15:59.432Z,6.80
2023-03-31T01:18:34.993Z,6.80
2023-03-31T01:21:19.999Z,6.80
2023-03-31T01:24:16.020Z,6.80
2023-03-31T01:27:24.086Z,6.90
2023-03-31T01:30:14.347Z,6.80
2023-03-31T01:33:09.593Z,6.80
2023-03-31T01:35:44.348Z,6.80
2023-03-31T01:38:34.052Z,6.80
2023-03-31T01:41:33.573Z,6.80
2023-03-31T01:44:26.920Z,6.80
2023-03-31T01:47:05.160Z,6.70
2023-03-31T01:49:50.776Z,6.70
2023-03-31T01:52:28.179Z,6.70
2023-03-31T01:55:20.799Z,6.70
2023-03-31T01:58:00.233Z,6.70
2023-03-31T02:00:38.041Z,6.60
2023-03-31T02:03:19.278Z,6.60
2023-03-31T02:05:55.569Z,6.60
2023-03-31T02:08:37.281Z,6.60
2023-03-31T02:11:09.935Z,6.60
2023-03-31T02:13:45.499Z,6.70
2023-03-31T02:16:24.340Z,6.70
2023-03-31T02:19:02.536Z,6.70
2023-03-31T02:21:38.756Z,6.70
2023-03-31T02:24:13.779Z,6.70
2023-03-31T02:27:11.457Z,6.70
2023-03-31T02:29:43.318Z,6.60
2023-03-31T02:32:38.268Z,6.60
2023-03-31T02:35:16.499Z,6.60
2023-03-31T02:37:49.747Z,6.70
2023-03-31T02:40:23.008Z,6.70
2023-03-31T02:42:54.829Z,6.70
2023-03-31T02:45:51.078Z,6.70
2023-03-31T02:48:27.393Z,6.70
2023-03-31T02:51:09.030Z,6.70
2023-03-31T02:53:58.063Z,6.70
2023-03-31T02:57:16.735Z,6.70
2023-03-31T03:00:13.980Z,6.70
2023-03-31T03:03:16.317Z,6.70
2023-03-31T03:06:15.567Z,6.70
2023-03-31T03:09:18.383Z,6.70
2023-03-31T03:12:00.248Z,6.80
2023-03-31T03:14:37.873Z,6.80
2023-03-31T03:17:21.648Z,6.80
2023-03-31T03:19:56.136Z,6.80
2023-03-31T03:22:28.041Z,6.80
2023-03-31T03:24:59.821Z,6.80
2023-03-31T03:27:32.737Z,6.80
2023-03-31T03:30:06.685Z,6.80
2023-03-31T03:32:38.659Z,6.80
2023-03-31T03:35:11.134Z,6.80
2023-03-31T03:37:42.871Z,6.80
2023-03-31T03:40:15.449Z,6.80
2023-03-31T03:42:47.270Z,6.90
2023-03-31T03:45:18.997Z,6.90
2023-03-31T03:47:51.044Z,6.90
2023-03-31T03:50:22.752Z,6.90
2023-03-31T03:52:54.557Z,6.90
2023-03-31T03:55:26.395Z,6.90
2023-03-31T03:57:58.157Z,6.90
2023-03-31T04:00:29.840Z,6.90
2023-03-31T04:03:01.813Z,6.90
2023-03-31T04:05:33.599Z,7.00
2023-03-31T04:08:06.213Z,7.00
2023-03-31T04:10:37.963Z,7.00
2023-03-31T04:13:09.695Z,6.90
2023-03-31T04:15:41.507Z,7.00
2023-03-31T04:18:23.064Z,7.00
2023-03-31T04:21:04.035Z,7.00
2023-03-31T04:23:38.464Z,6.90
2023-03-31T04:26:10.414Z,6.90
2023-03-31T04:28:46.686Z,6.90
2023-03-31T04:31:25.384Z,6.90
2023-03-31T04:34:02.299Z,6.90
2023-03-31T04:36:34.326Z,6.90
2023-03-31T04:39:06.068Z,6.90
2023-03-31T04:41:37.809Z,6.80
2023-03-31T04:44:09.614Z,6.90
2023-03-31T04:46:41.342Z,7.80
2023-03-31T04:49:13.189Z,6.80
2023-03-31T04:51:44.984Z,6.90
2023-03-31T04:54:17.180Z,6.80
2023-03-31T04:56:48.932Z,6.90
2023-03-31T04:59:20.765Z,6.90
2023-03-31T05:01:52.519Z,6.90
2023-03-31T05:04:24.368Z,6.90
2023-03-31T05:06:56.487Z,6.90
2023-03-31T05:09:28.263Z,6.90
2023-03-31T05:11:59.924Z,7.00
2023-03-31T05:14:31.651Z,7.00
2023-03-31T05:17:03.424Z,7.00
2023-03-31T05:19:35.390Z,7.00
2023-03-31T05:22:07.095Z,7.00
2023-03-31T05:24:38.855Z,7.00
2023-03-31T05:27:10.572Z,7.00
2023-03-31T05:29:42.386Z,7.00
2023-03-31T05:32:14.137Z,7.10
2023-03-31T05:34:46.236Z,7.10
2023-03-31T05:37:21.052Z,7.10
2023-03-31T05:39:53.355Z,7.10
2023-03-31T05:42:25.159Z,7.10
2023-03-31T05:44:57.310Z,7.20
2023-03-31T05:47:29.059Z,7.10
2023-03-31T05:50:01.064Z,7.10
2023-03-31T05:52:33.039Z,7.20
2023-03-31T05:55:05.028Z,7.20
2023-03-31T05:57:36.718Z,7.20
2023-03-31T06:00:11.268Z,7.20
2023-03-31T06:02:43.178Z,7.20
2023-03-31T06:05:14.976Z,7.20
2023-03-31T06:07:46.695Z,7.20
2023-03-31T06:10:18.464Z,7.20
2023-03-31T06:12:50.133Z,7.30
2023-03-31T06:15:21.858Z,7.30
2023-03-31T06:17:53.651Z,7.30
2023-03-31T06:20:30.141Z,7.30
2023-03-31T06:23:01.853Z,7.30
2023-03-31T06:25:43.821Z,7.30
2023-03-31T06:28:22.058Z,7.30
2023-03-31T06:31:07.349Z,7.30
2023-03-31T06:33:41.195Z,7.30
2023-03-31T06:36:15.726Z,7.50
2023-03-31T06:38:48.153Z,7.40
2023-03-31T06:41:21.124Z,7.40
2023-03-31T06:43:52.877Z,7.50
2023-03-31T06:46:25.081Z,7.60
2023-03-31T06:48:56.827Z,7.60
2023-03-31T06:51:30.599Z,7.60
2023-03-31T06:54:03.532Z,7.60
2023-03-31T06:56:35.496Z,7.60
2023-03-31T06:59:07.217Z,7.60
2023-03-31T07:01:39.225Z,7.60
2023-03-31T07:04:11.078Z,7.60
2023-03-31T07:06:42.756Z,7.70
2023-03-31T07:09:14.456Z,7.80
2023-03-31T07:11:46.138Z,7.80
2023-03-31T07:14:17.959Z,7.80
2023-03-31T07:16:50.729Z,7.90
2023-03-31T07:19:22.921Z,7.90
2023-03-31T07:21:56.535Z,8.00
2023-03-31T07:24:28.417Z,8.00
2023-03-31T07:27:00.373Z,8.00
2023-03-31T07:29:32.051Z,8.00
2023-03-31T07:32:03.992Z,8.00
2023-03-31T07:34:37.699Z,8.00
2023-03-31T07:37:09.605Z,8.00
2023-03-31T07:39:41.328Z,8.00
2023-03-31T07:42:13.099Z,8.00
2023-03-31T07:44:45.176Z,8.00
2023-03-31T07:47:16.899Z,8.00
2023-03-31T07:49:48.712Z,7.90
2023-03-31T07:52:20.615Z,7.90
2023-03-31T07:54:52.501Z,7.90
2023-03-31T07:57:24.300Z,7.90
2023-03-31T07:59:56.045Z,7.90
2023-03-31T08:02:28.046Z,7.90
2023-03-31T08:05:00.107Z,7.90
2023-03-31T08:07:37.872Z,8.00
2023-03-31T08:10:13.203Z,8.00
2023-03-31T08:12:45.037Z,8.00
2023-03-31T08:15:17.119Z,8.00
2023-03-31T08:17:48.846Z,8.00
2023-03-31T08:20:20.979Z,8.00
2023-03-31T08:22:52.781Z,8.00
2023-03-31T08:25:24.552Z,8.00
2023-03-31T08:27:56.927Z,8.00
2023-03-31T08:30:28.657Z,8.00
2023-03-31T08:33:00.481Z,8.00
2023-03-31T08:35:32.302Z,8.00
2023-03-31T08:38:04.723Z,8.00
2023-03-31T08:40:41.191Z,8.00
2023-03-31T08:43:22.386Z,8.00
2023-03-31T08:45:56.121Z,8.00
2023-03-31T08:48:38.838Z,8.00
2023-03-31T08:51:21.749Z,8.00
2023-03-31T08:54:08.029Z,8.10
2023-03-31T08:56:44.506Z,8.00
2023-03-31T08:59:27.345Z,8.10
2023-03-31T09:02:29.919Z,8.00
2023-03-31T09:05:25.733Z,8.00
2023-03-31T09:08:14.808Z,8.10
2023-03-31T09:10:56.502Z,8.00
2023-03-31T09:13:53.141Z,8.00
2023-03-31T09:16:33.640Z,8.00
2023-03-31T09:19:15.595Z,8.00
2023-03-31T09:21:51.923Z,8.00
2023-03-31T09:24:32.493Z,8.10
2023-03-31T09:27:08.568Z,8.10
2023-03-31T09:30:01.558Z,8.10
2023-03-31T09:32:33.780Z,8.10
2023-03-31T09:35:23.190Z,8.40
2023-03-31T09:37:55.470Z,8.70
2023-03-31T09:40:28.938Z,8.90
2023-03-31T09:43:07.357Z,9.00
2023-03-31T09:45:39.127Z,9.00
2023-03-31T09:48:23.609Z,8.90
2023-03-31T09:50:59.971Z,8.90
2023-03-31T09:53:35.186Z,8.80
2023-03-31T09:56:08.852Z,8.80
2023-03-31T09:58:42.809Z,8.80
2023-03-31T10:01:16.161Z,8.90
2023-03-31T10:03:53.889Z,9.00
2023-03-31T10:06:26.798Z,9.10
2023-03-31T10:09:02.159Z,9.20
2023-03-31T10:11:34.004Z,9.40
2023-03-31T10:14:13.308Z,9.50
2023-03-31T10:16:50.802Z,9.60
2023-03-31T10:19:32.633Z,9.90
2023-03-31T10:22:07.021Z,10.10
2023-03-31T10:24:46.535Z,10.30
2023-03-31T10:27:26.342Z,10.60
2023-03-31T10:30:00.817Z,10.70
2023-03-31T10:32:37.637Z,10.80
2023-03-31T10:35:29.916Z,9.50
2023-03-31T10:38:10.750Z,11.10
2023-03-31T10:40:52.484Z,11.30
2023-03-31T10:43:35.661Z,11.30
2023-03-31T10:46:08.247Z,11.50
2023-03-31T10:48:42.228Z,11.80
2023-03-31T10:51:19.239Z,12.00
2023-03-31T10:53:53.001Z,12.30
2023-03-31T10:56:42.293Z,12.50
2023-03-31T10:59:29.882Z,12.50
2023-03-31T11:02:32.499Z,12.60
2023-03-31T11:05:13.366Z,12.50
2023-03-31T11:07:52.498Z,12.60
2023-03-31T11:10:51.755Z,12.80
2023-03-31T11:13:23.415Z,13.00
2023-03-31T11:16:03.953Z,13.00
2023-03-31T11:18:39.942Z,13.00
2023-03-31T11:21:53.352Z,13.30
2023-03-31T11:24:49.164Z,13.40
2023-03-31T11:27:51.987Z,13.50
2023-03-31T11:30:40.424Z,13.70
2023-03-31T11:33:32.906Z,14.00
2023-03-31T11:36:16.991Z,14.20
2023-03-31T11:39:03.827Z,14.30
2023-03-31T11:41:46.881Z,14.30
2023-03-31T11:44:20.991Z,14.30
2023-03-31T11:46:56.657Z,14.30
2023-03-31T11:49:39.004Z,14.50
2023-03-31T11:52:27.000Z,14.80
2023-03-31T11:55:03.110Z,15.10
2023-03-31T11:58:03.965Z,15.20
2023-03-31T12:00:44.033Z,15.20
2023-03-31T12:03:31.535Z,15.00
2023-03-31T12:06:11.127Z,14.70
2023-03-31T12:09:04.487Z,14.60
2023-03-31T12:11:45.589Z,14.80
2023-03-31T12:14:40.233Z,14.90
2023-03-31T12:17:14.953Z,14.60
2023-03-31T12:19:52.033Z,14.30
2023-03-31T12:22:34.630Z,14.10
2023-03-31T12:25:13.496Z,14.30
2023-03-31T12:27:51.457Z,14.20
2023-03-31T12:30:34.487Z,14.20
2023-03-31T12:33:31.360Z,14.00
2023-03-31T12:36:12.618Z,13.90
2023-03-31T12:38:50.348Z,13.90
2023-03-31T12:42:05.298Z,13.80
2023-03-31T12:44:45.511Z,13.70
2023-03-31T12:47:28.588Z,13.60
2023-03-31T12:50:21.904Z,13.60
2023-03-31T12:53:39.397Z,13.50
2023-03-31T12:56:11.112Z,13.40
2023-03-31T12:58:44.890Z,13.30
2023-03-31T13:01:24.464Z,13.40
2023-03-31T13:04:19.931Z,13.70
2023-03-31T13:06:57.673Z,13.90
2023-03-31T13:09:41.966Z,14.10
2023-03-31T13:12:17.083Z,14.30
2023-03-31T13:14:53.784Z,14.50
2023-03-31T13:17:38.531Z,14.80
2023-03-31T13:20:35.744Z,15.10
2023-03-31T13:23:13.422Z,15.30
2023-03-31T13:25:53.227Z,15.50
2023-03-31T13:28:40.102Z,15.50
2023-03-31T13:31:14.535Z,15.70
2023-03-31T13:33:59.567Z,15.90
2023-03-31T13:36:34.312Z,15.80
2023-03-31T13:39:39.806Z,15.60
2023-03-31T13:42:45.513Z,15.30
2023-03-31T13:45:32.272Z,14.70
2023-03-31T13:48:26.227Z,13.50
2023-03-31T13:51:10.047Z,11.40
2023-03-31T13:54:06.695Z,10.90
2023-03-31T13:56:44.368Z,10.50
2023-03-31T13:59:33.946Z,10.30
2023-03-31T14:02:39.906Z,10.00
2023-03-31T14:05:35.404Z,9.80
2023-03-31T14:08:39.185Z,9.70
2023-03-31T14:11:16.990Z,9.70
2023-03-31T14:14:05.282Z,9.90
2023-03-31T14:16:40.459Z,10.00
2023-03-31T14:19:53.232Z,10.10
2023-03-31T14:23:08.877Z,10.20
2023-03-31T14:25:59.432Z,10.40
2023-03-31T14:28:58.047Z,10.60
2023-03-31T14:31:37.824Z,10.90
2023-03-31T14:34:37.115Z,11.40
2023-03-31T14:37:17.802Z,11.70
2023-03-31T14:39:58.143Z,11.60
2023-03-31T14:42:42.912Z,11.80
2023-03-31T14:45:24.973Z,11.90
2023-03-31T14:47:59.526Z,11.90
2023-03-31T14:50:35.015Z,11.90
2023-03-31T14:53:17.997Z,11.90
2023-03-31T14:55:58.768Z,11.90
2023-03-31T14:58:35.028Z,11.90
2023-03-31T15:01:09.751Z,11.80
2023-03-31T15:03:42.565Z,11.90
2023-03-31T15:06:15.887Z,12.00
2023-03-31T15:08:47.704Z,12.10
2023-03-31T15:11:21.921Z,12.20
2023-03-31T15:14:04.442Z,12.30
2023-03-31T15:16:45.163Z,12.40
2023-03-31T15:19:24.970Z,12.60
2023-03-31T15:22:01.929Z,12.70
2023-03-31T15:24:33.680Z,12.90
2023-03-31T15:27:20.586Z,12.90
2023-03-31T15:29:57.649Z,12.90
2023-03-31T15:32:32.625Z,13.00
2023-03-31T15:37:43.515Z,13.10
2023-03-31T15:40:26.267Z,13.10
2023-03-31T15:43:24.290Z,13.20
2023-03-31T15:45:58.595Z,13.30
2023-03-31T15:48:34.246Z,13.30
2023-03-31T15:51:14.767Z,13.20
2023-03-31T15:53:49.078Z,13.00
2023-03-31T15:56:51.188Z,12.90
2023-03-31T15:59:27.722Z,12.90
2023-03-31T16:02:10.956Z,13.00
2023-03-31T16:04:42.763Z,13.10
2023-03-31T16:07:22.706Z,13.00
2023-03-31T16:10:00.242Z,12.80
2023-03-31T16:12:43.870Z,12.60
2023-03-31T16:15:23.707Z,12.50
2023-03-31T16:18:02.152Z,12.40
2023-03-31T16:20:37.214Z,12.40
2023-03-31T16:23:18.747Z,12.40
2023-03-31T16:25:51.245Z,12.30
2023-03-31T16:28:28.930Z,12.30
2023-03-31T16:31:05.162Z,12.20
2023-03-31T16:33:54.743Z,12.10
2023-03-31T16:36:27.202Z,12.10
2023-03-31T16:39:01.895Z,12.10
2023-03-31T16:41:36.727Z,12.10
2023-03-31T16:44:08.491Z,12.00
2023-03-31T16:46:40.386Z,11.90
2023-03-31T16:49:12.314Z,11.90
2023-03-31T16:51:44.017Z,11.80
2023-03-31T16:54:16.084Z,11.10
2023-03-31T16:56:47.978Z,11.70
2023-03-31T16:59:19.767Z,11.60
2023-03-31T17:01:52.341Z,11.60
2023-03-31T17:04:24.140Z,11.50
2023-03-31T17:06:56.051Z,11.50
2023-03-31T17:09:28.591Z,11.60
2023-03-31T17:12:00.412Z,11.60
2023-03-31T17:14:32.118Z,11.60
2023-03-31T17:17:03.845Z,11.60
2023-03-31T17:19:35.561Z,11.50
2023-03-31T17:22:07.611Z,11.50
2023-03-31T17:24:39.310Z,11.50
2023-03-31T17:27:11.090Z,11.50
2023-03-31T17:29:42.776Z,11.50
2023-03-31T17:32:15.012Z,11.50
2023-03-31T17:34:50.360Z,11.40
2023-03-31T17:37:22.543Z,11.30
2023-03-31T17:39:55.295Z,11.20
2023-03-31T17:42:27.043Z,11.20
2023-03-31T17:44:59.084Z,11.10
2023-03-31T17:47:32.576Z,11.10
2023-03-31T17:50:04.966Z,11.00
2023-03-31T17:52:36.986Z,11.00
2023-03-31T17:55:09.288Z,10.90
2023-03-31T17:57:40.995Z,10.90
2023-03-31T18:00:15.109Z,10.90
2023-03-31T18:02:46.918Z,10.80
2023-03-31T18:05:18.751Z,10.70
2023-03-31T18:07:51.842Z,10.70
2023-03-31T18:10:23.623Z,10.50
2023-03-31T18:12:55.327Z,10.50
2023-03-31T18:15:27.058Z,10.30
2023-03-31T18:17:58.825Z,10.30
2023-03-31T18:20:30.618Z,10.20
2023-03-31T18:23:02.282Z,10.10
2023-03-31T18:25:34.302Z,10.00
2023-03-31T18:28:06.741Z,9.90
2023-03-31T18:30:38.936Z,9.80
2023-03-31T18:33:11.642Z,9.80
2023-03-31T18:35:44.690Z,9.60
2023-03-31T18:38:18.317Z,9.60
2023-03-31T18:40:52.427Z,9.60
2023-03-31T18:43:24.912Z,9.60
2023-03-31T18:45:58.518Z,9.60
2023-03-31T18:48:30.335Z,9.60
2023-03-31T18:51:02.665Z,9.70
2023-03-31T18:53:34.444Z,9.70
2023-03-31T18:56:06.356Z,9.80
2023-03-31T18:58:38.551Z,9.80
2023-03-31T19:01:10.611Z,9.80
2023-03-31T19:03:43.772Z,9.80
2023-03-31T19:06:17.557Z,9.90
2023-03-31T19:08:49.430Z,9.90
2023-03-31T19:11:21.181Z,9.90
2023-03-31T19:13:55.384Z,9.90
2023-03-31T19:16:27.455Z,9.90
2023-03-31T19:18:59.430Z,9.90
2023-03-31T19:21:33.117Z,9.00
2023-03-31T19:24:06.460Z,9.90
2023-03-31T19:26:38.479Z,10.00
2023-03-31T19:29:10.312Z,10.00
2023-03-31T19:31:42.318Z,10.00
2023-03-31T19:34:16.366Z,10.00
2023-03-31T19:36:48.252Z,10.00
2023-03-31T19:39:20.915Z,9.90
2023-03-31T19:41:52.603Z,9.90
2023-03-31T19:44:24.360Z,9.90
2023-03-31T19:46:58.377Z,9.90
2023-03-31T19:49:30.124Z,9.90
2023-03-31T19:52:01.844Z,9.90
2023-03-31T19:54:33.658Z,9.90
2023-03-31T19:57:05.530Z,9.90
2023-03-31T19:59:37.485Z,9.90
2023-03-31T20:02:12.710Z,9.80
2023-03-31T20:04:44.765Z,9.80
2023-03-31T20:07:16.659Z,9.80
2023-03-31T20:09:48.371Z,9.80
2023-03-31T20:12:20.072Z,9.80
2023-03-31T20:14:51.753Z,9.80
2023-03-31T20:17:23.445Z,9.80
2023-03-31T20:19:55.288Z,9.70
2023-03-31T20:22:27.043Z,9.70
2023-03-31T20:24:59.497Z,9.70
2023-03-31T20:27:31.232Z,9.70
2023-03-31T20:30:03.161Z,9.70
2023-03-31T20:32:35.240Z,9.70
2023-03-31T20:35:07.066Z,9.70
2023-03-31T20:37:38.849Z,9.60
2023-03-31T20:40:11.962Z,9.60
2023-03-31T20:42:43.723Z,9.60
2023-03-31T20:45:15.489Z,9.50
2023-03-31T20:47:47.249Z,9.40
2023-03-31T20:50:22.205Z,9.30
2023-03-31T20:52:53.953Z,9.20
2023-03-31T20:55:25.681Z,9.10
2023-03-31T20:57:57.485Z,9.00
2023-03-31T21:00:29.199Z,9.00
2023-03-31T21:03:03.023Z,9.00
2023-03-31T21:05:45.999Z,8.90
2023-03-31T21:08:17.748Z,8.90
2023-03-31T21:10:49.546Z,8.90
2023-03-31T21:13:21.401Z,8.90
2023-03-31T21:15:56.335Z,8.90
2023-03-31T21:18:29.814Z,8.80
2023-03-31T21:21:10.995Z,8.80
2023-03-31T21:23:42.746Z,8.70
2023-03-31T21:26:15.768Z,8.70
2023-03-31T21:28:50.437Z,8.60
2023-03-31T21:31:24.155Z,8.60
2023-03-31T21:33:57.600Z,8.50
2023-03-31T21:36:29.577Z,8.50
2023-03-31T21:39:01.293Z,8.50
2023-03-31T21:41:33.018Z,8.50
2023-03-31T21:44:04.824Z,8.50
2023-03-31T21:46:36.780Z,8.50
2023-03-31T21:49:09.579Z,8.50
2023-03-31T21:51:41.245Z,8.50
2023-03-31T21:54:12.977Z,8.50
2023-03-31T21:56:44.791Z,8.50
2023-03-31T21:59:16.537Z,8.50
2023-03-31T22:01:48.342Z,8.50
2023-03-31T22:04:20.537Z,8.40
2023-03-31T22:06:52.292Z,8.40
2023-03-31T22:09:24.258Z,8.40
2023-03-31T22:11:56.164Z,8.40
2023-03-31T22:14:27.887Z,8.40
2023-03-31T22:16:59.648Z,8.40
2023-03-31T22:19:31.936Z,8.40
2023-03-31T22:22:04.203Z,8.40
2023-03-31T22:24:36.288Z,8.30
2023-03-31T22:27:08.118Z,8.40
2023-03-31T22:29:40.556Z,8.40
2023-03-31T22:32:12.919Z,8.40
2023-03-31T22:34:44.625Z,8.40
2023-03-31T22:37:16.511Z,8.40
2023-03-31T22:39:48.893Z,8.40
2023-03-31T22:42:21.007Z,8.40
2023-03-31T22:44:52.734Z,8.30
2023-03-31T22:47:24.649Z,8.30
2023-03-31T22:49:56.353Z,8.30
2023-03-31T22:52:28.054Z,8.40
2023-03-31T22:54:59.830Z,8.40
2023-03-31T22:57:32.070Z,8.40
2023-03-31T23:00:04.306Z,8.40
2023-03-31T23:02:36.452Z,8.40
2023-03-31T23:05:08.774Z,8.40
2023-03-31T23:07:40.567Z,8.40
2023-03-31T23:10:12.326Z,8.40
2023-03-31T23:12:44.173Z,8.40
2023-03-31T23:15:16.172Z,8.50
2023-03-31T23:17:47.918Z,8.50
2023-03-31T23:20:19.663Z,8.50
2023-03-31T23:22:53.260Z,8.50
2023-03-31T23:25:25.775Z,8.50
2023-03-31T23:27:57.455Z,8.50
2023-03-31T23:30:29.272Z,8.50
2023-03-31T23:33:01.033Z,8.50
2023-03-31T23:35:33.112Z,8.50
2023-03-31T23:38:05.411Z,8.50
2023-03-31T23:40:37.635Z,8.50
2023-03-31T23:43:09.360Z,8.50
2023-03-31T23:45:41.249Z,8.50
2023-03-31T23:48:13.039Z,9.40
2023-03-31T23:50:45.176Z,8.40
2023-03-31T23:53:17.714Z,8.40
2023-03-31T23:55:57.914Z,8.40
2023-03-31T23:58:30.870Z,9.60
